Time;durP1;ratioP1;P1;durP2;ratioP2;P2;SDS_P1;SDS_P2;PMS_P1;PMS_P2;Temp;Humidity;BMP_temperature;BMP_pressure;BME280_temperature;BME280_humidity;BME280_pressure;Samples;Min_cycle;Max_cycle;Signal;HPM_P1;HPM_P2
2021/05/29 00:01:08;;;;;;;3.15;2.90;;;14.60;96.20;;;;;;5096918;28;20627;-70
2021/05/29 00:03:34;;;;;;;5.07;3.00;;;14.50;96.30;;;;;;5096769;28;20288;-70
2021/05/29 00:06:01;;;;;;;3.30;3.00;;;14.30;96.30;;;;;;5096386;28;20203;-70
2021/05/29 00:08:28;;;;;;;2.70;2.50;;;14.30;96.90;;;;;;5097061;28;20271;-70
2021/05/29 00:10:57;;;;;;;3.78;2.50;;;14.50;97.50;;;;;;5096624;28;20281;-70
2021/05/29 00:13:25;;;;;;;4.18;2.95;;;14.40;97.20;;;;;;5096575;28;20203;-70
2021/05/29 00:15:51;;;;;;;3.85;3.38;;;14.40;97.20;;;;;;5096331;28;20213;-70
2021/05/29 00:18:19;;;;;;;3.50;3.30;;;14.30;97.40;;;;;;5095468;28;20226;-70
2021/05/29 00:20:46;;;;;;;3.97;3.10;;;14.20;97.10;;;;;;5096418;28;20691;-70
2021/05/29 00:23:13;;;;;;;4.07;3.45;;;14.30;97.00;;;;;;5096209;28;20292;-70
2021/05/29 00:25:40;;;;;;;4.50;3.47;;;14.30;97.70;;;;;;5096264;28;20567;-70
2021/05/29 00:28:09;;;;;;;4.50;3.35;;;14.30;98.00;;;;;;5096255;28;20243;-70
2021/05/29 00:30:35;;;;;;;3.65;3.28;;;14.40;98.40;;;;;;5096216;28;20247;-70
2021/05/29 00:33:01;;;;;;;3.05;2.75;;;14.50;98.70;;;;;;5096198;28;20255;-70
2021/05/29 00:35:29;;;;;;;4.47;3.38;;;14.30;98.20;;;;;;5096262;28;20296;-70
2021/05/29 00:37:55;;;;;;;3.40;3.10;;;14.10;98.30;;;;;;5096144;28;20305;-70
2021/05/29 00:40:22;;;;;;;3.47;3.10;;;14.10;98.60;;;;;;5095716;28;20317;-70
2021/05/29 00:42:48;;;;;;;3.85;3.47;;;14.10;99.50;;;;;;5095910;28;20214;-70
2021/05/29 00:45:15;;;;;;;4.47;3.60;;;14.20;99.50;;;;;;5095880;28;20206;-70
2021/05/29 00:47:41;;;;;;;3.22;2.92;;;14.10;99.40;;;;;;5095735;28;20199;-70
2021/05/29 00:50:10;;;;;;;3.60;3.30;;;14.10;99.80;;;;;;5095568;28;20759;-70
2021/05/29 00:52:38;;;;;;;3.75;3.40;;;14.10;99.90;;;;;;5095615;28;20208;-70
2021/05/29 00:55:07;;;;;;;4.40;3.35;;;14.20;99.20;;;;;;5095773;28;20309;-70
2021/05/29 00:57:33;;;;;;;3.15;2.80;;;14.20;98.70;;;;;;5095709;28;20254;-70
2021/05/29 00:59:59;;;;;;;3.75;3.35;;;14.30;99.30;;;;;;5095604;28;20553;-70
2021/05/29 01:02:26;;;;;;;3.70;3.28;;;14.10;99.40;;;;;;5095560;28;20292;-70
2021/05/29 01:04:53;;;;;;;3.83;3.42;;;13.90;99.90;;;;;;5095320;28;20213;-70
2021/05/29 01:07:19;;;;;;;4.35;3.63;;;13.90;99.90;;;;;;5095377;28;20201;-69
2021/05/29 01:09:46;;;;;;;5.43;3.90;;;13.90;99.90;;;;;;5095468;28;20218;-70
2021/05/29 01:12:14;;;;;;;5.90;3.88;;;14.00;99.90;;;;;;5095376;28;20343;-70
2021/05/29 01:14:48;;;;;;;4.18;3.78;;;14.00;99.90;;;;;;5094985;28;20729;-70
2021/05/29 01:17:14;;;;;;;4.20;3.53;;;13.90;99.90;;;;;;5094962;28;20614;-70
2021/05/29 01:19:40;;;;;;;4.57;4.18;;;13.90;99.90;;;;;;5095178;28;20222;-70
2021/05/29 01:22:09;;;;;;;5.30;4.55;;;13.80;99.90;;;;;;5095297;28;20236;-70
2021/05/29 01:24:36;;;;;;;4.78;4.10;;;13.90;99.90;;;;;;5095158;28;20288;-70
2021/05/29 01:27:04;;;;;;;6.18;4.38;;;13.70;99.90;;;;;;5094770;28;20238;-70
2021/05/29 01:29:30;;;;;;;4.38;3.97;;;13.60;99.90;;;;;;5094721;28;20218;-70
2021/05/29 01:32:01;;;;;;;4.88;4.40;;;13.70;99.90;;;;;;5094831;28;20238;-70
2021/05/29 01:34:30;;;;;;;4.57;4.10;;;13.70;99.90;;;;;;5095039;28;20210;-70
2021/05/29 01:36:58;;;;;;;4.55;4.10;;;13.80;99.90;;;;;;5094746;28;20205;-70
2021/05/29 01:39:26;;;;;;;6.10;4.55;;;13.80;99.90;;;;;;5094892;28;20226;-70
2021/05/29 01:41:53;;;;;;;5.03;4.40;;;13.90;99.90;;;;;;5094397;28;20296;-70
2021/05/29 01:44:21;;;;;;;4.50;4.03;;;13.90;99.90;;;;;;5094862;28;20202;-70
2021/05/29 01:46:47;;;;;;;7.38;4.38;;;13.90;99.90;;;;;;5094586;28;20198;-70
2021/05/29 01:49:14;;;;;;;4.90;3.80;;;13.90;99.90;;;;;;5094741;28;20316;-70
2021/05/29 01:51:40;;;;;;;4.75;4.05;;;13.90;99.90;;;;;;5094529;28;20733;-70
2021/05/29 01:54:06;;;;;;;3.88;3.58;;;13.90;99.90;;;;;;5094661;28;20240;-70
2021/05/29 01:56:33;;;;;;;5.93;3.85;;;13.90;99.90;;;;;;5094216;28;20205;-70
2021/05/29 01:59:00;;;;;;;4.70;4.20;;;13.90;99.90;;;;;;5094459;28;20228;-70
2021/05/29 02:01:26;;;;;;;4.88;4.32;;;13.90;99.90;;;;;;5094334;28;20237;-71
2021/05/29 02:03:53;;;;;;;5.00;4.20;;;13.90;99.90;;;;;;5094332;28;20668;-71
2021/05/29 02:06:19;;;;;;;4.78;4.32;;;13.80;99.90;;;;;;5094293;28;20202;-70
2021/05/29 02:08:46;;;;;;;4.95;4.45;;;13.80;99.90;;;;;;5094232;28;20312;-70
2021/05/29 02:11:12;;;;;;;6.00;4.60;;;13.90;99.90;;;;;;5094326;28;20284;-70
2021/05/29 02:13:41;;;;;;;6.10;4.43;;;13.90;99.90;;;;;;5094382;28;20289;-70
2021/05/29 02:16:09;;;;;;;4.80;4.30;;;13.90;99.90;;;;;;5094020;28;20198;-70
2021/05/29 02:18:36;;;;;;;5.63;4.15;;;13.90;99.90;;;;;;5094081;28;20312;-70
2021/05/29 02:21:04;;;;;;;6.07;4.35;;;13.80;99.90;;;;;;5094198;28;20226;-70
2021/05/29 02:23:33;;;;;;;4.63;4.13;;;13.80;99.90;;;;;;5094347;28;20202;-70
2021/05/29 02:26:02;;;;;;;4.65;4.20;;;13.80;99.90;;;;;;5093938;28;20285;-70
2021/05/29 02:28:28;;;;;;;4.80;3.90;;;13.90;99.90;;;;;;5093921;28;20310;-70
2021/05/29 02:30:56;;;;;;;4.68;4.15;;;13.80;99.90;;;;;;5093811;28;20210;-70
2021/05/29 02:33:23;;;;;;;5.10;4.32;;;13.80;99.90;;;;;;5094014;28;20201;-70
2021/05/29 02:35:50;;;;;;;4.70;3.88;;;13.70;99.90;;;;;;5093713;28;20255;-70
2021/05/29 02:38:17;;;;;;;7.70;4.47;;;13.80;99.90;;;;;;5093795;28;20208;-70
2021/05/29 02:40:43;;;;;;;5.35;3.75;;;13.70;99.90;;;;;;5093813;28;20232;-70
2021/05/29 02:43:10;;;;;;;5.00;4.00;;;13.70;99.90;;;;;;5093470;28;20301;-69
2021/05/29 02:45:38;;;;;;;4.57;4.03;;;13.70;99.90;;;;;;5093632;28;20206;-70
2021/05/29 02:48:07;;;;;;;4.70;4.25;;;13.60;99.90;;;;;;5093701;28;20672;-70
2021/05/29 02:50:34;;;;;;;4.82;4.10;;;13.60;99.90;;;;;;5093711;28;20281;-70
2021/05/29 02:53:00;;;;;;;4.93;4.00;;;13.60;99.90;;;;;;5093454;28;20198;-70
2021/05/29 02:55:27;;;;;;;5.20;4.55;;;13.40;99.90;;;;;;5093367;28;20660;-70
2021/05/29 02:57:54;;;;;;;7.13;4.28;;;13.40;99.90;;;;;;5093551;28;20204;-70
2021/05/29 03:00:23;;;;;;;4.68;4.28;;;13.30;99.90;;;;;;5093586;28;20226;-70
2021/05/29 03:02:50;;;;;;;6.32;3.92;;;13.30;99.90;;;;;;5093651;28;20206;-70
2021/05/29 03:05:18;;;;;;;8.30;4.20;;;13.30;99.90;;;;;;5093527;28;20664;-70
2021/05/29 03:07:46;;;;;;;5.00;4.47;;;13.30;99.90;;;;;;5093593;28;20206;-69
2021/05/29 03:10:14;;;;;;;5.28;4.18;;;13.30;99.90;;;;;;5093237;28;20771;-69
2021/05/29 03:12:41;;;;;;;5.60;4.28;;;13.20;99.90;;;;;;5093525;28;20283;-70
2021/05/29 03:15:10;;;;;;;4.95;4.07;;;13.20;99.90;;;;;;5093510;28;20205;-70
2021/05/29 03:17:36;;;;;;;4.45;4.10;;;13.10;99.90;;;;;;5093297;28;20272;-69
2021/05/29 03:20:04;;;;;;;5.88;4.25;;;13.00;99.90;;;;;;5093086;28;20303;-69
2021/05/29 03:22:31;;;;;;;5.70;5.13;;;13.00;99.90;;;;;;5093486;28;20545;-69
2021/05/29 03:24:58;;;;;;;5.30;4.80;;;13.00;99.90;;;;;;5093269;28;20691;-70
2021/05/29 03:27:25;;;;;;;6.60;4.90;;;13.00;99.90;;;;;;5093608;28;20202;-70
2021/05/29 03:29:51;;;;;;;4.70;4.20;;;13.00;99.90;;;;;;5093180;28;20241;-70
2021/05/29 03:32:18;;;;;;;5.70;5.10;;;13.00;99.90;;;;;;5093291;28;20579;-70
2021/05/29 03:34:44;;;;;;;8.20;6.05;;;12.90;99.90;;;;;;5093369;28;20296;-70
2021/05/29 03:37:11;;;;;;;5.28;4.75;;;12.90;99.90;;;;;;5092919;28;20731;-70
2021/05/29 03:39:39;;;;;;;6.75;4.90;;;12.90;99.90;;;;;;5092906;28;20275;-70
2021/05/29 03:42:07;;;;;;;5.35;4.60;;;12.90;99.90;;;;;;5093108;28;20297;-69
2021/05/29 03:44:34;;;;;;;7.47;5.25;;;12.90;99.90;;;;;;5093155;28;20213;-70
2021/05/29 03:47:00;;;;;;;7.45;5.60;;;12.90;99.90;;;;;;5092821;28;20210;-70
2021/05/29 03:49:27;;;;;;;6.43;5.25;;;12.90;99.90;;;;;;5093216;28;20222;-69
2021/05/29 03:51:53;;;;;;;6.20;4.82;;;12.90;99.90;;;;;;5092992;28;20212;-70
2021/05/29 03:54:20;;;;;;;7.18;5.05;;;12.90;99.90;;;;;;5095011;28;20625;-70
2021/05/29 03:56:47;;;;;;;7.05;5.53;;;12.90;99.90;;;;;;5096517;28;20232;-70
2021/05/29 03:59:14;;;;;;;6.88;5.38;;;12.70;99.90;;;;;;5096874;28;20253;-69
2021/05/29 04:01:41;;;;;;;7.93;5.63;;;12.80;99.90;;;;;;5096568;28;20226;-70
2021/05/29 04:04:08;;;;;;;6.07;5.00;;;12.90;99.90;;;;;;5097097;28;20206;-69
2021/05/29 04:06:35;;;;;;;6.63;4.65;;;13.00;99.90;;;;;;5096644;28;20594;-70
2021/05/29 04:09:02;;;;;;;6.53;4.80;;;13.00;99.90;;;;;;5096424;28;20234;-70
2021/05/29 04:11:28;;;;;;;6.55;4.95;;;13.00;99.90;;;;;;5096414;28;20722;-70
2021/05/29 04:13:55;;;;;;;5.95;5.18;;;13.00;99.90;;;;;;5096573;28;20289;-70
2021/05/29 04:16:22;;;;;;;6.00;5.00;;;13.00;99.90;;;;;;5096416;28;20298;-70
2021/05/29 04:18:48;;;;;;;5.50;4.53;;;13.10;99.90;;;;;;5096715;28;20314;-70
2021/05/29 04:21:14;;;;;;;7.15;4.88;;;13.10;99.90;;;;;;5096439;28;20317;-70
2021/05/29 04:23:41;;;;;;;6.68;5.43;;;13.10;99.90;;;;;;5096439;28;20294;-71
2021/05/29 04:26:08;;;;;;;6.85;5.40;;;13.10;99.90;;;;;;5096120;28;20208;-70
2021/05/29 04:28:35;;;;;;;5.90;5.28;;;13.10;99.90;;;;;;5096212;28;20320;-70
2021/05/29 04:31:03;;;;;;;6.25;5.20;;;13.20;99.90;;;;;;5096269;28;20198;-70
2021/05/29 04:33:32;;;;;;;9.73;4.75;;;13.20;99.90;;;;;;5096249;28;20209;-71
2021/05/29 04:36:00;;;;;;;5.75;4.78;;;13.20;99.90;;;;;;5095936;28;20289;-70
2021/05/29 04:38:27;;;;;;;6.90;5.22;;;13.20;99.90;;;;;;5096058;28;20218;-70
2021/05/29 04:40:53;;;;;;;6.22;4.90;;;13.20;99.90;;;;;;5096164;28;20312;-71
2021/05/29 04:43:20;;;;;;;6.78;4.90;;;13.20;99.90;;;;;;5096112;28;20672;-70
2021/05/29 04:45:48;;;;;;;6.72;5.50;;;13.20;99.90;;;;;;5095753;28;20202;-69
2021/05/29 04:48:17;;;;;;;5.90;5.20;;;13.20;99.90;;;;;;5095938;28;20560;-70
2021/05/29 04:53:29;;;;;;;7.60;5.50;;;13.30;99.90;;;;;;5096158;28;20228;-69
2021/05/29 04:55:57;;;;;;;6.63;4.93;;;13.30;99.90;;;;;;5095660;28;20618;-69
2021/05/29 04:58:23;;;;;;;5.57;5.00;;;13.30;99.90;;;;;;5095695;28;20295;-70
2021/05/29 05:00:50;;;;;;;7.20;5.60;;;13.40;99.90;;;;;;5095401;28;20308;-70
2021/05/29 05:03:18;;;;;;;5.80;5.25;;;13.40;99.90;;;;;;5095622;28;20721;-70
2021/05/29 05:05:44;;;;;;;5.15;4.60;;;13.30;99.90;;;;;;5094973;28;20198;-69
2021/05/29 05:08:10;;;;;;;6.45;5.18;;;13.20;99.90;;;;;;5095359;28;20296;-70
2021/05/29 05:10:37;;;;;;;7.05;5.45;;;13.00;99.90;;;;;;5095236;28;20285;-70
2021/05/29 05:13:03;;;;;;;9.57;5.70;;;12.90;99.90;;;;;;5095484;28;20274;-70
2021/05/29 05:15:30;;;;;;;10.55;5.55;;;12.90;99.90;;;;;;5095241;28;20205;-70
2021/05/29 05:17:56;;;;;;;7.43;5.50;;;12.90;99.90;;;;;;5095386;28;20293;-70
2021/05/29 05:20:24;;;;;;;6.70;5.72;;;12.80;99.90;;;;;;5094892;28;20749;-70
2021/05/29 05:22:50;;;;;;;7.25;5.72;;;12.70;99.90;;;;;;5095217;28;20202;-70
2021/05/29 05:25:17;;;;;;;7.93;5.88;;;12.80;99.90;;;;;;5095175;28;20209;-70
2021/05/29 05:27:43;;;;;;;6.10;5.00;;;12.90;99.90;;;;;;5094838;28;20205;-70
2021/05/29 05:30:12;;;;;;;7.05;5.40;;;13.00;99.90;;;;;;5095109;28;20304;-70
2021/05/29 05:32:39;;;;;;;6.95;5.32;;;13.10;99.90;;;;;;5095045;28;20202;-70
2021/05/29 05:35:10;;;;;;;6.40;5.10;;;13.20;99.90;;;;;;5095002;28;20743;-70
2021/05/29 05:37:37;;;;;;;6.90;5.85;;;13.30;99.90;;;;;;5094815;28;20297;-70
2021/05/29 05:40:05;;;;;;;7.13;5.75;;;13.30;99.90;;;;;;5094544;28;20226;-70
2021/05/29 05:42:32;;;;;;;6.40;5.47;;;13.30;99.90;;;;;;5094889;28;20221;-70
2021/05/29 05:44:58;;;;;;;8.02;5.00;;;13.20;99.90;;;;;;5095055;28;20636;-70
2021/05/29 05:47:25;;;;;;;5.60;5.00;;;13.00;99.90;;;;;;5094627;28;20297;-70
2021/05/29 05:49:51;;;;;;;6.57;5.20;;;13.20;99.90;;;;;;5094449;28;20305;-70
2021/05/29 05:52:17;;;;;;;5.93;4.65;;;13.10;99.90;;;;;;5094496;28;20233;-70
2021/05/29 05:54:45;;;;;;;5.43;4.57;;;13.10;99.90;;;;;;5094477;28;20293;-70
2021/05/29 05:57:13;;;;;;;5.65;4.82;;;13.10;99.90;;;;;;5094530;28;20202;-70
2021/05/29 05:59:39;;;;;;;6.00;4.45;;;13.10;99.90;;;;;;5094506;28;20230;-70
2021/05/29 06:02:06;;;;;;;5.10;4.60;;;13.10;99.90;;;;;;5094556;28;20618;-70
2021/05/29 06:04:33;;;;;;;6.47;4.82;;;13.00;99.90;;;;;;5094397;28;20672;-70
2021/05/29 06:06:59;;;;;;;5.18;4.68;;;13.00;99.90;;;;;;5094103;28;20687;-70
2021/05/29 06:09:26;;;;;;;5.38;4.80;;;13.00;99.90;;;;;;5094395;28;20693;-70
2021/05/29 06:11:54;;;;;;;5.85;3.75;;;13.10;99.90;;;;;;5094234;28;20204;-70
2021/05/29 06:19:50;;;;;;;4.90;4.20;;;13.40;99.90;;;;;;5093952;28;20271;-70
2021/05/29 06:22:16;;;;;;;4.90;4.43;;;13.50;99.90;;;;;;5094228;28;20238;-70
2021/05/29 06:24:43;;;;;;;4.68;4.10;;;13.80;99.90;;;;;;5094118;28;20198;-70
2021/05/29 06:27:10;;;;;;;6.53;4.55;;;13.80;99.90;;;;;;5093719;28;20638;-71
2021/05/29 06:29:36;;;;;;;4.53;4.10;;;13.90;99.90;;;;;;5094018;28;20592;-70
2021/05/29 06:32:03;;;;;;;6.20;4.90;;;14.00;99.90;;;;;;5093809;28;20676;-70
2021/05/29 06:34:29;;;;;;;5.05;4.32;;;13.90;99.90;;;;;;5093956;28;20208;-70
2021/05/29 06:36:55;;;;;;;4.97;3.80;;;13.80;99.90;;;;;;5093803;28;20210;-70
2021/05/29 06:39:22;;;;;;;6.45;3.88;;;13.80;99.90;;;;;;5093886;28;20313;-70
2021/05/29 06:41:49;;;;;;;3.90;3.55;;;13.80;99.90;;;;;;5093501;28;20263;-70
2021/05/29 06:44:16;;;;;;;4.50;3.40;;;13.80;99.90;;;;;;5093617;28;20712;-69
2021/05/29 06:46:43;;;;;;;4.57;3.40;;;13.90;99.90;;;;;;5093597;28;20202;-70
2021/05/29 06:49:09;;;;;;;4.60;3.83;;;14.10;99.90;;;;;;5093722;28;20262;-69
2021/05/29 06:51:40;;;;;;;4.78;3.35;;;14.10;99.90;;;;;;5093793;28;20256;-69
2021/05/29 06:54:11;;;;;;;3.08;2.80;;;14.10;99.90;;;;;;5093750;28;20621;-70
2021/05/29 06:59:22;;;;;;;3.22;2.50;;;14.50;99.90;;;;;;5093415;28;20248;-70
2021/05/29 07:01:49;;;;;;;3.40;3.10;;;15.00;99.90;;;;;;5093491;28;20200;-70
2021/05/29 07:04:15;;;;;;;4.57;2.78;;;15.40;98.60;;;;;;5093639;28;20229;-70
2021/05/29 07:06:41;;;;;;;3.33;2.80;;;15.50;97.70;;;;;;5093234;28;20290;-70
2021/05/29 07:09:08;;;;;;;3.13;2.80;;;15.70;97.60;;;;;;5093465;28;20319;-70
2021/05/29 07:11:37;;;;;;;3.60;3.30;;;16.00;97.70;;;;;;5093544;28;20291;-70
2021/05/29 07:14:05;;;;;;;3.50;3.20;;;16.20;96.20;;;;;;5093881;28;20563;-70
2021/05/29 07:16:34;;;;;;;3.28;3.00;;;16.30;95.00;;;;;;5093246;28;20208;-70
2021/05/29 07:19:01;;;;;;;5.80;2.90;;;16.50;95.30;;;;;;5093336;28;20261;-70
2021/05/29 07:21:27;;;;;;;3.67;2.85;;;16.40;94.40;;;;;;5093714;28;20320;-70
2021/05/29 07:23:53;;;;;;;3.55;2.78;;;16.40;94.40;;;;;;5093508;28;20202;-71
2021/05/29 07:26:20;;;;;;;3.35;2.75;;;16.40;94.60;;;;;;5093293;28;20201;-72
2021/05/29 07:28:46;;;;;;;4.60;2.88;;;16.40;94.70;;;;;;5095924;28;20234;-70
2021/05/29 07:31:12;;;;;;;2.80;2.60;;;16.50;93.50;;;;;;5097222;28;20738;-70
2021/05/29 07:33:40;;;;;;;2.65;2.45;;;16.60;93.60;;;;;;5097240;28;20201;-70
2021/05/29 07:36:06;;;;;;;2.90;2.70;;;16.90;93.00;;;;;;5097059;28;20295;-70
2021/05/29 07:38:34;;;;;;;3.50;2.53;;;16.90;92.50;;;;;;5097254;28;20226;-70
2021/05/29 07:41:01;;;;;;;4.10;3.22;;;17.00;92.00;;;;;;5096990;28;20717;-70
2021/05/29 07:43:27;;;;;;;3.30;3.00;;;17.10;91.40;;;;;;5097212;28;20217;-70
2021/05/29 07:45:54;;;;;;;2.60;2.40;;;17.10;91.90;;;;;;5096830;28;20668;-70
2021/05/29 07:48:20;;;;;;;7.50;3.25;;;17.40;92.10;;;;;;5097060;28;20296;-70
2021/05/29 07:51:01;;;;;;;3.08;2.80;;;17.70;91.20;;;;;;5097087;28;20208;-70
2021/05/29 07:53:29;;;;;;;2.72;2.53;;;17.70;90.30;;;;;;5097087;28;20212;-70
2021/05/29 07:55:56;;;;;;;2.90;2.60;;;17.50;87.50;;;;;;5097006;28;20293;-71
2021/05/29 07:58:23;;;;;;;3.55;2.83;;;17.40;87.30;;;;;;5097071;28;20323;-70
2021/05/29 08:00:50;;;;;;;2.83;2.60;;;17.20;87.00;;;;;;5096608;28;20319;-70
2021/05/29 08:03:18;;;;;;;3.72;2.63;;;17.30;89.20;;;;;;5096730;28;20246;-70
2021/05/29 08:05:44;;;;;;;3.47;2.80;;;17.40;87.30;;;;;;5096589;28;20245;-70
2021/05/29 08:08:11;;;;;;;2.70;2.50;;;17.80;84.90;;;;;;5096675;28;20245;-71
2021/05/29 08:10:38;;;;;;;2.13;2.00;;;18.10;82.90;;;;;;5096476;28;20202;-70
2021/05/29 08:13:04;;;;;;;2.30;2.10;;;18.70;80.30;;;;;;5096642;28;20204;-70
2021/05/29 08:15:31;;;;;;;2.70;2.50;;;19.60;76.70;;;;;;5096429;28;20207;-71
2021/05/29 08:17:57;;;;;;;3.47;2.30;;;20.70;70.60;;;;;;5096321;28;20549;-70
2021/05/29 08:20:23;;;;;;;2.60;2.20;;;21.60;65.40;;;;;;5096091;28;20482;-71
2021/05/29 08:22:49;;;;;;;2.50;2.30;;;23.00;61.70;;;;;;5096292;28;20440;-71
2021/05/29 08:25:17;;;;;;;2.30;2.20;;;24.50;57.50;;;;;;5096301;28;20472;-71
2021/05/29 08:27:44;;;;;;;4.63;2.40;;;25.50;53.70;;;;;;5096265;28;20790;-71
2021/05/29 08:30:12;;;;;;;2.50;2.30;;;26.20;47.90;;;;;;5095897;28;20463;-71
2021/05/29 08:32:38;;;;;;;2.50;2.40;;;26.30;46.30;;;;;;5096008;28;20531;-71
2021/05/29 08:35:06;;;;;;;3.43;2.40;;;26.00;43.60;;;;;;5096053;28;20436;-71
2021/05/29 08:37:32;;;;;;;5.77;2.80;;;26.30;43.90;;;;;;5096116;28;20531;-71
2021/05/29 08:39:59;;;;;;;2.80;2.60;;;27.20;44.60;;;;;;5095258;28;20562;-71
2021/05/29 08:42:26;;;;;;;2.27;2.17;;;28.40;43.50;;;;;;5095689;28;20825;-69
2021/05/29 08:44:58;;;;;;;2.33;2.13;;;29.20;40.90;;;;;;5095918;28;20454;-71
2021/05/29 08:47:24;;;;;;;2.80;2.47;;;29.80;40.20;;;;;;5095609;28;20829;-71
2021/05/29 08:49:51;;;;;;;2.63;2.10;;;29.30;37.80;;;;;;5095959;28;20822;-71
2021/05/29 08:52:17;;;;;;;2.40;2.20;;;28.20;39.00;;;;;;5095729;28;20441;-71
2021/05/29 08:54:43;;;;;;;2.53;2.33;;;28.00;40.80;;;;;;5095881;28;20868;-71
2021/05/29 08:57:10;;;;;;;2.40;2.27;;;28.70;38.90;;;;;;5095600;28;20496;-71
2021/05/29 08:59:37;;;;;;;2.10;2.00;;;29.70;37.60;;;;;;5095359;28;20461;-70
2021/05/29 09:02:04;;;;;;;2.60;2.40;;;28.80;36.10;;;;;;5095664;28;20444;-70
2021/05/29 09:04:30;;;;;;;2.80;2.20;;;28.70;38.20;;;;;;5095680;28;20452;-70
2021/05/29 09:06:58;;;;;;;2.27;2.17;;;28.50;37.30;;;;;;5095453;28;20787;-70
2021/05/29 09:09:25;;;;;;;2.67;2.43;;;29.80;37.80;;;;;;5095342;28;20466;-71
2021/05/29 09:11:53;;;;;;;2.10;2.00;;;31.50;34.80;;;;;;5095538;28;20441;-71
2021/05/29 09:14:40;;;;;;;2.00;1.90;;;31.10;34.00;;;;;;5095471;28;20440;-70
2021/05/29 09:17:14;;;;;;;2.20;2.10;;;28.70;36.60;;;;;;5095252;28;20492;-70
2021/05/29 09:19:55;;;;;;;2.53;2.33;;;29.50;37.20;;;;;;5095083;28;21047;-70
2021/05/29 09:22:24;;;;;;;1.70;1.60;;;28.50;37.70;;;;;;5095529;28;20571;-71
2021/05/29 09:25:09;;;;;;;2.93;2.50;;;29.50;35.70;;;;;;5095249;28;20447;-71
2021/05/29 09:27:37;;;;;;;1.90;1.80;;;30.90;33.40;;;;;;5095090;28;20531;-71
2021/05/29 09:30:07;;;;;;;2.13;2.00;;;32.00;32.00;;;;;;5095153;28;20550;-71
2021/05/29 09:32:35;;;;;;;2.03;1.93;;;32.30;30.80;;;;;;5095048;28;20440;-71
2021/05/29 09:35:07;;;;;;;1.77;1.67;;;33.50;31.40;;;;;;5095205;28;20444;-71
2021/05/29 09:37:33;;;;;;;1.80;1.70;;;34.40;30.00;;;;;;5094914;28;20543;-71
2021/05/29 09:40:01;;;;;;;2.40;2.20;;;35.30;28.20;;;;;;5094580;28;20490;-71
2021/05/29 09:42:29;;;;;;;2.50;2.30;;;34.50;28.30;;;;;;5094665;28;20456;-70
2021/05/29 09:44:56;;;;;;;2.80;2.60;;;33.50;30.00;;;;;;5094875;28;20454;-70
2021/05/29 09:47:26;;;;;;;5.73;2.40;;;32.80;30.90;;;;;;5094407;28;20478;-70
2021/05/29 09:49:53;;;;;;;2.87;2.67;;;30.00;32.40;;;;;;5094744;28;20518;-70
2021/05/29 09:52:38;;;;;;;2.50;2.40;;;27.90;36.90;;;;;;5093699;28;20844;-70
2021/05/29 09:55:07;;;;;;;2.63;2.43;;;27.10;39.30;;;;;;5094913;28;20444;-70
2021/05/29 09:57:50;;;;;;;2.40;2.20;;;26.70;38.50;;;;;;5094462;28;20479;-70
2021/05/29 10:00:17;;;;;;;3.93;2.30;;;25.80;40.50;;;;;;5094582;28;20462;-70
2021/05/29 10:02:58;;;;;;;5.00;2.83;;;24.70;43.20;;;;;;5094355;28;20941;-70
2021/05/29 10:05:29;;;;;;;3.17;2.97;;;24.50;44.00;;;;;;5094403;28;20443;-70
2021/05/29 10:07:55;;;;;;;2.90;2.70;;;25.50;43.10;;;;;;5094444;28;20926;-70
2021/05/29 10:10:22;;;;;;;2.93;2.70;;;27.60;41.50;;;;;;5094195;28;20521;-70
2021/05/29 10:12:49;;;;;;;2.83;2.63;;;29.00;38.40;;;;;;5094389;28;20527;-70
2021/05/29 10:15:17;;;;;;;2.70;2.50;;;29.60;37.20;;;;;;5094169;28;20581;-70
2021/05/29 10:17:44;;;;;;;2.87;2.67;;;29.40;37.40;;;;;;5094580;28;20529;-70
2021/05/29 10:20:14;;;;;;;2.80;2.60;;;29.50;38.10;;;;;;5094213;28;20461;-70
2021/05/29 10:22:40;;;;;;;2.80;2.60;;;28.40;38.20;;;;;;5094342;28;20471;-70
2021/05/29 10:25:10;;;;;;;2.90;2.70;;;28.10;38.70;;;;;;5093913;28;20436;-70
2021/05/29 10:27:38;;;;;;;2.70;2.50;;;26.20;39.90;;;;;;5093968;28;20448;-70
2021/05/29 10:30:06;;;;;;;4.03;2.73;;;25.20;42.80;;;;;;5093685;28;20974;-69
2021/05/29 10:32:32;;;;;;;3.07;2.87;;;23.60;45.50;;;;;;5094095;28;20530;-69
2021/05/29 10:35:00;;;;;;;2.60;2.40;;;22.40;46.70;;;;;;5094052;28;20442;-69
2021/05/29 10:37:33;;;;;;;2.70;2.50;;;21.20;48.80;;;;;;5093467;28;20454;-69
2021/05/29 10:40:14;;;;;;;4.40;2.50;;;20.50;51.20;;;;;;5093965;28;20488;-69
2021/05/29 10:42:40;;;;;;;2.23;2.03;;;20.10;50.90;;;;;;5093791;28;20558;-69
2021/05/29 10:45:15;;;;;;;5.43;2.27;;;20.40;50.80;;;;;;5093892;28;20446;-69
2021/05/29 10:48:03;;;;;;;2.27;2.17;;;21.00;50.40;;;;;;5093587;28;20454;-69
2021/05/29 10:50:55;;;;;;;2.60;2.40;;;21.70;49.50;;;;;;5093886;28;20482;-69
2021/05/29 10:53:40;;;;;;;2.40;2.20;;;22.10;48.40;;;;;;5093808;28;20452;-69
2021/05/29 10:56:34;;;;;;;3.20;3.00;;;22.30;47.10;;;;;;5093464;28;20531;-70
2021/05/29 10:59:06;;;;;;;2.70;2.20;;;22.20;48.60;;;;;;5093701;28;20564;-69
2021/05/29 11:02:08;;;;;;;1.73;1.63;;;21.60;47.30;;;;;;5093835;28;20865;-69
2021/05/29 11:04:34;;;;;;;2.37;1.90;;;21.00;48.50;;;;;;5092022;28;20466;-69
2021/05/29 11:07:24;;;;;;;2.20;2.00;;;20.70;49.40;;;;;;5093238;28;20444;-69
2021/05/29 11:09:57;;;;;;;4.60;2.27;;;20.30;50.00;;;;;;5093784;28;20467;-69
2021/05/29 11:12:51;;;;;;;3.90;2.97;;;20.30;51.00;;;;;;5093558;28;20451;-69
2021/05/29 11:15:18;;;;;;;2.33;2.13;;;20.60;50.80;;;;;;5093302;28;20442;-70
2021/05/29 11:18:09;;;;;;;2.60;1.80;;;20.80;50.00;;;;;;5093582;28;20450;-69
2021/05/29 11:21:06;;;;;;;2.90;2.13;;;21.00;49.30;;;;;;5093582;28;20434;-69
2021/05/29 11:23:33;;;;;;;1.77;1.67;;;20.80;49.30;;;;;;5093541;28;20450;-69
2021/05/29 11:26:00;;;;;;;3.27;2.47;;;20.40;50.00;;;;;;5093231;28;20452;-69
2021/05/29 11:28:26;;;;;;;2.97;1.97;;;20.70;51.30;;;;;;5093195;28;20509;-69
2021/05/29 11:30:58;;;;;;;2.10;1.70;;;21.20;49.20;;;;;;5093441;28;20562;-69
2021/05/29 11:33:24;;;;;;;1.63;1.53;;;21.60;47.90;;;;;;5093418;28;20580;-70
2021/05/29 11:35:51;;;;;;;2.13;1.97;;;21.70;47.10;;;;;;5093155;28;20503;-69
2021/05/29 11:38:21;;;;;;;1.73;1.60;;;21.30;46.50;;;;;;5093339;28;20450;-69
2021/05/29 11:40:55;;;;;;;1.97;1.70;;;21.00;46.70;;;;;;5093147;28;20431;-69
2021/05/29 11:43:36;;;;;;;1.70;1.60;;;20.90;45.50;;;;;;5093439;28;20455;-69
2021/05/29 11:46:05;;;;;;;1.35;1.25;;;20.70;44.90;;;;;;5093067;28;20460;-69
2021/05/29 11:48:36;;;;;;;1.77;1.67;;;20.50;45.50;;;;;;5093366;28;20293;-69
2021/05/29 11:51:10;;;;;;;3.37;1.50;;;21.00;47.10;;;;;;5092962;28;20993;-69
2021/05/29 11:53:37;;;;;;;1.87;1.77;;;21.50;46.20;;;;;;5093534;28;20482;-69
2021/05/29 11:56:05;;;;;;;1.73;1.57;;;21.60;46.60;;;;;;5092841;28;20448;-69
2021/05/29 11:59:00;;;;;;;1.77;1.67;;;21.70;45.60;;;;;;5093079;28;20888;-70
2021/05/29 12:01:29;;;;;;;1.40;1.30;;;21.40;44.50;;;;;;5057282;28;20531;-69
2021/05/29 12:03:58;;;;;;;3.10;1.70;;;21.40;45.50;;;;;;5093516;28;20522;-69
2021/05/29 12:06:36;;;;;;;1.50;1.40;;;21.20;47.20;;;;;;5092823;28;20808;-69
2021/05/29 12:09:05;;;;;;;1.30;1.20;;;21.60;46.80;;;;;;5092766;28;20886;-69
2021/05/29 12:11:33;;;;;;;1.90;1.40;;;21.90;43.90;;;;;;5092966;28;20517;-69
2021/05/29 12:14:10;;;;;;;2.10;1.30;;;21.90;44.60;;;;;;5092828;28;20992;-69
2021/05/29 12:16:38;;;;;;;1.33;1.23;;;22.10;45.00;;;;;;5096241;28;20535;-69
2021/05/29 12:19:05;;;;;;;1.43;1.33;;;21.90;44.80;;;;;;5096382;28;20468;-69
2021/05/29 12:21:42;;;;;;;1.30;1.20;;;21.90;44.30;;;;;;5096221;28;20443;-70
2021/05/29 12:24:09;;;;;;;1.40;1.30;;;22.20;41.90;;;;;;5096461;28;20525;-69
2021/05/29 12:26:35;;;;;;;2.50;1.03;;;22.10;42.00;;;;;;5096509;28;20474;-70
2021/05/29 12:29:02;;;;;;;1.10;1.10;;;22.10;41.50;;;;;;5096000;28;20970;-69
2021/05/29 12:31:47;;;;;;;1.43;1.33;;;21.90;40.70;;;;;;5096342;28;20532;-69
2021/05/29 12:34:13;;;;;;;1.20;1.13;;;21.90;40.80;;;;;;5096257;28;20439;-69
2021/05/29 12:37:04;;;;;;;1.40;1.20;;;22.10;40.40;;;;;;5096143;28;20449;-69
2021/05/29 12:39:54;;;;;;;1.00;1.00;;;21.70;42.00;;;;;;5095932;28;20516;-69
2021/05/29 12:42:24;;;;;;;1.53;1.27;;;21.70;44.30;;;;;;5095856;28;20462;-69
2021/05/29 12:44:51;;;;;;;1.23;1.13;;;22.00;45.50;;;;;;5096045;28;20446;-69
2021/05/29 12:47:20;;;;;;;1.93;1.60;;;22.10;44.40;;;;;;5095841;28;20515;-69
2021/05/29 12:49:47;;;;;;;1.30;1.30;;;22.20;44.00;;;;;;5095983;28;20474;-69
2021/05/29 12:52:24;;;;;;;1.60;1.50;;;22.50;43.20;;;;;;5095881;28;20471;-69
2021/05/29 12:54:51;;;;;;;1.33;1.20;;;22.90;42.20;;;;;;5095804;28;20446;-69
2021/05/29 12:57:17;;;;;;;0.80;0.80;;;23.00;41.40;;;;;;5095691;28;20478;-69
2021/05/29 12:59:44;;;;;;;1.30;1.20;;;22.00;39.60;;;;;;5095775;28;20894;-69
2021/05/29 13:02:32;;;;;;;1.00;1.00;;;21.50;43.10;;;;;;5095718;28;20474;-69
2021/05/29 13:07:45;;;;;;;1.33;1.13;;;21.80;44.30;;;;;;5095763;28;20422;-69
2021/05/29 13:10:26;;;;;;;1.40;1.30;;;21.80;43.00;;;;;;5095495;28;20671;-69